sensor_id;sensor_type;location;lat;lon;timestamp;temperature;humidity
52643;DHT22;38531;53.296;6.614;2023-05-07T00:00:20;11.00;99.90
52643;DHT22;38531;53.296;6.614;2023-05-07T00:02:46;11.00;99.90
52643;DHT22;38531;53.296;6.614;2023-05-07T00:05:12;10.90;99.90
52643;DHT22;38531;53.296;6.614;2023-05-07T00:07:38;10.90;99.90
52643;DHT22;38531;53.296;6.614;2023-05-07T00:10:04;10.90;99.90
52643;DHT22;38531;53.296;6.614;2023-05-07T00:12:31;10.90;99.90
52643;DHT22;38531;53.296;6.614;2023-05-07T00:15:02;10.80;99.90
52643;DHT22;38531;53.296;6.614;2023-05-07T00:17:29;10.80;99.90
52643;DHT22;38531;53.296;6.614;2023-05-07T00:19:55;10.80;99.90
52643;DHT22;38531;53.296;6.614;2023-05-07T00:22:21;11.00;99.90
52643;DHT22;38531;53.296;6.614;2023-05-07T00:24:46;10.80;99.90
52643;DHT22;38531;53.296;6.614;2023-05-07T00:27:12;10.80;99.90
52643;DHT22;38531;53.296;6.614;2023-05-07T00:29:38;10.80;99.90
52643;DHT22;38531;53.296;6.614;2023-05-07T00:32:04;10.80;99.90
52643;DHT22;38531;53.296;6.614;2023-05-07T00:34:30;10.80;99.90
52643;DHT22;38531;53.296;6.614;2023-05-07T00:36:56;10.80;99.90
52643;DHT22;38531;53.296;6.614;2023-05-07T00:39:21;10.80;99.90
52643;DHT22;38531;53.296;6.614;2023-05-07T00:41:47;10.80;99.90
52643;DHT22;38531;53.296;6.614;2023-05-07T00:44:13;10.80;99.90
52643;DHT22;38531;53.296;6.614;2023-05-07T00:46:40;10.90;99.90
52643;DHT22;38531;53.296;6.614;2023-05-07T00:49:06;10.80;99.90
52643;DHT22;38531;53.296;6.614;2023-05-07T00:51:33;10.90;99.90
52643;DHT22;38531;53.296;6.614;2023-05-07T00:54:00;11.10;99.90
52643;DHT22;38531;53.296;6.614;2023-05-07T00:56:27;10.80;99.90
52643;DHT22;38531;53.296;6.614;2023-05-07T00:58:53;10.80;99.90
52643;DHT22;38531;53.296;6.614;2023-05-07T01:01:19;10.80;99.90
52643;DHT22;38531;53.296;6.614;2023-05-07T01:03:45;11.00;99.90
52643;DHT22;38531;53.296;6.614;2023-05-07T01:06:12;10.80;99.90
52643;DHT22;38531;53.296;6.614;2023-05-07T01:08:39;11.10;99.90
52643;DHT22;38531;53.296;6.614;2023-05-07T01:11:07;10.80;99.90
52643;DHT22;38531;53.296;6.614;2023-05-07T01:13:34;10.80;99.90
52643;DHT22;38531;53.296;6.614;2023-05-07T01:16:00;11.00;99.90
52643;DHT22;38531;53.296;6.614;2023-05-07T01:18:26;10.90;99.90
52643;DHT22;38531;53.296;6.614;2023-05-07T01:20:52;10.80;99.90
52643;DHT22;38531;53.296;6.614;2023-05-07T01:23:19;10.80;99.90
52643;DHT22;38531;53.296;6.614;2023-05-07T01:25:54;10.80;99.90
52643;DHT22;38531;53.296;6.614;2023-05-07T01:28:20;11.10;99.90
52643;DHT22;38531;53.296;6.614;2023-05-07T01:30:52;10.80;99.90
52643;DHT22;38531;53.296;6.614;2023-05-07T01:33:22;10.80;99.90
52643;DHT22;38531;53.296;6.614;2023-05-07T01:35:51;10.80;99.90
52643;DHT22;38531;53.296;6.614;2023-05-07T01:38:18;10.90;99.90
52643;DHT22;38531;53.296;6.614;2023-05-07T01:40:46;10.80;99.90
52643;DHT22;38531;53.296;6.614;2023-05-07T01:43:12;10.90;99.90
52643;DHT22;38531;53.296;6.614;2023-05-07T01:45:38;10.80;99.90
52643;DHT22;38531;53.296;6.614;2023-05-07T01:48:04;10.80;99.90
52643;DHT22;38531;53.296;6.614;2023-05-07T01:50:31;10.80;99.90
52643;DHT22;38531;53.296;6.614;2023-05-07T01:52:57;10.80;99.90
52643;DHT22;38531;53.296;6.614;2023-05-07T01:55:23;10.80;99.90
52643;DHT22;38531;53.296;6.614;2023-05-07T01:57:49;10.80;99.90
52643;DHT22;38531;53.296;6.614;2023-05-07T02:00:14;11.00;99.90
52643;DHT22;38531;53.296;6.614;2023-05-07T02:02:40;10.80;99.90
52643;DHT22;38531;53.296;6.614;2023-05-07T02:05:06;10.80;99.90
52643;DHT22;38531;53.296;6.614;2023-05-07T02:07:32;10.80;99.90
52643;DHT22;38531;53.296;6.614;2023-05-07T02:09:58;10.80;99.90
52643;DHT22;38531;53.296;6.614;2023-05-07T02:12:23;11.00;99.90
52643;DHT22;38531;53.296;6.614;2023-05-07T02:14:49;10.90;99.90
52643;DHT22;38531;53.296;6.614;2023-05-07T02:17:15;10.70;99.90
52643;DHT22;38531;53.296;6.614;2023-05-07T02:19:41;10.80;99.90
52643;DHT22;38531;53.296;6.614;2023-05-07T02:22:07;10.80;99.90
52643;DHT22;38531;53.296;6.614;2023-05-07T02:24:33;10.80;99.90
52643;DHT22;38531;53.296;6.614;2023-05-07T02:26:58;10.70;99.90
52643;DHT22;38531;53.296;6.614;2023-05-07T02:29:24;10.70;99.90
52643;DHT22;38531;53.296;6.614;2023-05-07T02:31:50;10.80;99.90
52643;DHT22;38531;53.296;6.614;2023-05-07T02:34:18;10.80;99.90
52643;DHT22;38531;53.296;6.614;2023-05-07T02:36:44;10.80;99.90
52643;DHT22;38531;53.296;6.614;2023-05-07T02:39:12;10.80;99.90
52643;DHT22;38531;53.296;6.614;2023-05-07T02:41:37;11.00;99.90
52643;DHT22;38531;53.296;6.614;2023-05-07T02:44:03;11.10;99.90
52643;DHT22;38531;53.296;6.614;2023-05-07T02:46:29;10.70;99.90
52643;DHT22;38531;53.296;6.614;2023-05-07T02:48:55;10.70;99.90
52643;DHT22;38531;53.296;6.614;2023-05-07T02:51:22;10.70;99.90
52643;DHT22;38531;53.296;6.614;2023-05-07T02:53:48;10.70;99.90
52643;DHT22;38531;53.296;6.614;2023-05-07T02:56:14;10.70;99.90
52643;DHT22;38531;53.296;6.614;2023-05-07T02:58:40;10.90;99.90
52643;DHT22;38531;53.296;6.614;2023-05-07T03:01:06;10.60;99.90
52643;DHT22;38531;53.296;6.614;2023-05-07T03:03:32;10.60;99.90
52643;DHT22;38531;53.296;6.614;2023-05-07T03:05:57;11.00;99.90
52643;DHT22;38531;53.296;6.614;2023-05-07T03:08:24;10.60;99.90
52643;DHT22;38531;53.296;6.614;2023-05-07T03:10:49;10.60;99.90
52643;DHT22;38531;53.296;6.614;2023-05-07T03:13:15;10.50;99.90
52643;DHT22;38531;53.296;6.614;2023-05-07T03:15:41;10.50;99.90
52643;DHT22;38531;53.296;6.614;2023-05-07T03:18:07;10.40;99.90
52643;DHT22;38531;53.296;6.614;2023-05-07T03:20:32;10.50;99.90
52643;DHT22;38531;53.296;6.614;2023-05-07T03:22:58;10.40;99.90
52643;DHT22;38531;53.296;6.614;2023-05-07T03:25:24;10.50;99.90
52643;DHT22;38531;53.296;6.614;2023-05-07T03:27:49;10.40;99.90
52643;DHT22;38531;53.296;6.614;2023-05-07T03:30:15;10.40;99.90
52643;DHT22;38531;53.296;6.614;2023-05-07T03:32:41;10.40;99.90
52643;DHT22;38531;53.296;6.614;2023-05-07T03:35:07;10.40;99.90
52643;DHT22;38531;53.296;6.614;2023-05-07T03:37:33;10.40;99.90
52643;DHT22;38531;53.296;6.614;2023-05-07T03:39:58;10.40;99.90
52643;DHT22;38531;53.296;6.614;2023-05-07T03:42:25;10.40;99.90
52643;DHT22;38531;53.296;6.614;2023-05-07T03:44:50;10.60;99.90
52643;DHT22;38531;53.296;6.614;2023-05-07T03:47:16;10.60;99.90
52643;DHT22;38531;53.296;6.614;2023-05-07T03:49:42;10.40;99.90
52643;DHT22;38531;53.296;6.614;2023-05-07T03:52:07;10.30;99.90
52643;DHT22;38531;53.296;6.614;2023-05-07T03:54:33;10.40;99.90
52643;DHT22;38531;53.296;6.614;2023-05-07T03:56:59;10.30;99.90
52643;DHT22;38531;53.296;6.614;2023-05-07T03:59:24;10.30;99.90
52643;DHT22;38531;53.296;6.614;2023-05-07T04:01:50;10.30;99.90
52643;DHT22;38531;53.296;6.614;2023-05-07T04:04:16;10.30;99.90
52643;DHT22;38531;53.296;6.614;2023-05-07T04:06:42;10.30;99.90
52643;DHT22;38531;53.296;6.614;2023-05-07T04:09:08;10.40;99.90
52643;DHT22;38531;53.296;6.614;2023-05-07T04:11:35;10.30;99.90
52643;DHT22;38531;53.296;6.614;2023-05-07T04:14:01;10.50;99.90
52643;DHT22;38531;53.296;6.614;2023-05-07T04:16:26;10.20;99.90
52643;DHT22;38531;53.296;6.614;2023-05-07T04:18:52;10.20;99.90
52643;DHT22;38531;53.296;6.614;2023-05-07T04:21:19;10.10;99.90
52643;DHT22;38531;53.296;6.614;2023-05-07T04:23:46;10.20;99.90
52643;DHT22;38531;53.296;6.614;2023-05-07T04:26:13;10.10;99.90
52643;DHT22;38531;53.296;6.614;2023-05-07T04:28:39;10.10;99.90
52643;DHT22;38531;53.296;6.614;2023-05-07T04:31:05;10.10;99.90
52643;DHT22;38531;53.296;6.614;2023-05-07T04:33:32;10.10;99.90
52643;DHT22;38531;53.296;6.614;2023-05-07T04:36:02;10.10;99.90
52643;DHT22;38531;53.296;6.614;2023-05-07T04:38:31;10.10;99.90
52643;DHT22;38531;53.296;6.614;2023-05-07T04:41:02;10.20;99.90
52643;DHT22;38531;53.296;6.614;2023-05-07T04:43:27;10.20;99.90
52643;DHT22;38531;53.296;6.614;2023-05-07T04:45:53;10.10;99.90
52643;DHT22;38531;53.296;6.614;2023-05-07T04:48:19;10.70;99.90
52643;DHT22;38531;53.296;6.614;2023-05-07T04:50:49;10.70;99.90
52643;DHT22;38531;53.296;6.614;2023-05-07T04:53:15;10.10;99.90
52643;DHT22;38531;53.296;6.614;2023-05-07T04:55:41;10.10;99.90
52643;DHT22;38531;53.296;6.614;2023-05-07T04:58:07;10.10;99.90
52643;DHT22;38531;53.296;6.614;2023-05-07T05:00:33;10.20;99.90
52643;DHT22;38531;53.296;6.614;2023-05-07T05:02:59;10.10;99.90
52643;DHT22;38531;53.296;6.614;2023-05-07T05:05:24;10.20;99.90
52643;DHT22;38531;53.296;6.614;2023-05-07T05:07:50;10.10;99.90
52643;DHT22;38531;53.296;6.614;2023-05-07T05:10:17;10.30;99.90
52643;DHT22;38531;53.296;6.614;2023-05-07T05:12:43;10.30;99.90
52643;DHT22;38531;53.296;6.614;2023-05-07T05:15:09;10.10;99.90
52643;DHT22;38531;53.296;6.614;2023-05-07T05:17:35;10.10;99.90
52643;DHT22;38531;53.296;6.614;2023-05-07T05:20:02;10.10;99.90
52643;DHT22;38531;53.296;6.614;2023-05-07T05:22:28;10.10;99.90
52643;DHT22;38531;53.296;6.614;2023-05-07T05:24:56;10.20;99.90
52643;DHT22;38531;53.296;6.614;2023-05-07T05:27:22;10.20;99.90
52643;DHT22;38531;53.296;6.614;2023-05-07T05:29:47;10.10;99.90
52643;DHT22;38531;53.296;6.614;2023-05-07T05:32:13;10.40;99.90
52643;DHT22;38531;53.296;6.614;2023-05-07T05:34:39;10.20;99.90
52643;DHT22;38531;53.296;6.614;2023-05-07T05:37:05;10.70;99.90
52643;DHT22;38531;53.296;6.614;2023-05-07T05:39:30;10.20;99.90
52643;DHT22;38531;53.296;6.614;2023-05-07T05:41:56;10.20;99.90
52643;DHT22;38531;53.296;6.614;2023-05-07T05:44:22;10.60;99.90
52643;DHT22;38531;53.296;6.614;2023-05-07T05:46:47;10.10;99.90
52643;DHT22;38531;53.296;6.614;2023-05-07T05:49:15;10.10;99.90
52643;DHT22;38531;53.296;6.614;2023-05-07T05:51:41;10.10;99.90
52643;DHT22;38531;53.296;6.614;2023-05-07T05:54:06;10.20;99.90
52643;DHT22;38531;53.296;6.614;2023-05-07T05:56:32;10.10;99.90
52643;DHT22;38531;53.296;6.614;2023-05-07T05:58:58;10.20;99.90
52643;DHT22;38531;53.296;6.614;2023-05-07T06:01:24;10.10;99.90
52643;DHT22;38531;53.296;6.614;2023-05-07T06:03:51;10.10;99.90
52643;DHT22;38531;53.296;6.614;2023-05-07T06:06:17;10.10;99.90
52643;DHT22;38531;53.296;6.614;2023-05-07T06:08:42;10.10;99.90
52643;DHT22;38531;53.296;6.614;2023-05-07T06:11:08;10.10;99.90
52643;DHT22;38531;53.296;6.614;2023-05-07T06:13:34;10.10;99.90
52643;DHT22;38531;53.296;6.614;2023-05-07T06:15:59;10.70;99.90
52643;DHT22;38531;53.296;6.614;2023-05-07T06:18:25;10.50;99.90
52643;DHT22;38531;53.296;6.614;2023-05-07T06:20:52;10.10;99.90
52643;DHT22;38531;53.296;6.614;2023-05-07T06:23:18;10.20;99.90
52643;DHT22;38531;53.296;6.614;2023-05-07T06:25:48;10.40;99.90
52643;DHT22;38531;53.296;6.614;2023-05-07T06:28:15;10.40;99.90
52643;DHT22;38531;53.296;6.614;2023-05-07T06:30:41;10.80;99.90
52643;DHT22;38531;53.296;6.614;2023-05-07T06:33:07;10.40;99.90
52643;DHT22;38531;53.296;6.614;2023-05-07T06:35:32;10.30;99.90
52643;DHT22;38531;53.296;6.614;2023-05-07T06:37:59;10.30;99.90
52643;DHT22;38531;53.296;6.614;2023-05-07T06:40:25;10.40;99.90
52643;DHT22;38531;53.296;6.614;2023-05-07T06:42:51;10.40;99.90
52643;DHT22;38531;53.296;6.614;2023-05-07T06:45:16;10.50;99.90
52643;DHT22;38531;53.296;6.614;2023-05-07T06:47:42;10.50;99.90
52643;DHT22;38531;53.296;6.614;2023-05-07T06:50:08;10.50;99.90
52643;DHT22;38531;53.296;6.614;2023-05-07T06:52:35;10.50;99.90
52643;DHT22;38531;53.296;6.614;2023-05-07T06:55:01;10.60;99.90
52643;DHT22;38531;53.296;6.614;2023-05-07T06:57:26;10.60;99.90
52643;DHT22;38531;53.296;6.614;2023-05-07T06:59:52;10.60;99.90
52643;DHT22;38531;53.296;6.614;2023-05-07T07:02:18;10.90;99.90
52643;DHT22;38531;53.296;6.614;2023-05-07T07:04:43;10.60;99.90
52643;DHT22;38531;53.296;6.614;2023-05-07T07:07:10;10.60;99.90
52643;DHT22;38531;53.296;6.614;2023-05-07T07:09:36;10.60;99.90
52643;DHT22;38531;53.296;6.614;2023-05-07T07:12:02;10.70;99.90
52643;DHT22;38531;53.296;6.614;2023-05-07T07:14:27;10.70;99.90
52643;DHT22;38531;53.296;6.614;2023-05-07T07:16:53;10.70;99.90
52643;DHT22;38531;53.296;6.614;2023-05-07T07:19:18;10.70;99.90
52643;DHT22;38531;53.296;6.614;2023-05-07T07:21:45;10.70;99.90
52643;DHT22;38531;53.296;6.614;2023-05-07T07:24:11;10.70;99.90
52643;DHT22;38531;53.296;6.614;2023-05-07T07:26:37;10.70;99.90
52643;DHT22;38531;53.296;6.614;2023-05-07T07:29:03;10.70;99.90
52643;DHT22;38531;53.296;6.614;2023-05-07T07:31:28;10.70;99.90
52643;DHT22;38531;53.296;6.614;2023-05-07T07:33:55;10.70;99.90
52643;DHT22;38531;53.296;6.614;2023-05-07T07:36:20;10.70;99.90
52643;DHT22;38531;53.296;6.614;2023-05-07T07:38:46;10.70;99.90
52643;DHT22;38531;53.296;6.614;2023-05-07T07:41:12;10.70;99.90
52643;DHT22;38531;53.296;6.614;2023-05-07T07:43:37;10.70;99.90
52643;DHT22;38531;53.296;6.614;2023-05-07T07:46:03;10.80;99.90
52643;DHT22;38531;53.296;6.614;2023-05-07T07:48:29;10.80;99.90
52643;DHT22;38531;53.296;6.614;2023-05-07T07:50:54;10.70;99.90
52643;DHT22;38531;53.296;6.614;2023-05-07T07:53:20;10.50;99.90
52643;DHT22;38531;53.296;6.614;2023-05-07T07:55:46;11.00;99.90
52643;DHT22;38531;53.296;6.614;2023-05-07T07:58:11;10.80;99.90
52643;DHT22;38531;53.296;6.614;2023-05-07T08:00:37;10.80;99.90
52643;DHT22;38531;53.296;6.614;2023-05-07T08:03:03;10.80;99.90
52643;DHT22;38531;53.296;6.614;2023-05-07T08:05:29;10.80;99.90
52643;DHT22;38531;53.296;6.614;2023-05-07T08:07:55;10.90;99.90
52643;DHT22;38531;53.296;6.614;2023-05-07T08:10:21;10.90;99.90
52643;DHT22;38531;53.296;6.614;2023-05-07T08:12:50;10.90;99.90
52643;DHT22;38531;53.296;6.614;2023-05-07T08:15:16;10.90;99.90
52643;DHT22;38531;53.296;6.614;2023-05-07T08:17:42;11.00;99.90
52643;DHT22;38531;53.296;6.614;2023-05-07T08:20:08;11.00;99.90
52643;DHT22;38531;53.296;6.614;2023-05-07T08:22:35;11.00;99.90
52643;DHT22;38531;53.296;6.614;2023-05-07T08:25:01;11.00;99.90
52643;DHT22;38531;53.296;6.614;2023-05-07T08:27:27;11.00;99.90
52643;DHT22;38531;53.296;6.614;2023-05-07T08:29:53;11.10;99.90
52643;DHT22;38531;53.296;6.614;2023-05-07T08:32:19;11.20;99.90
52643;DHT22;38531;53.296;6.614;2023-05-07T08:34:45;10.90;99.90
52643;DHT22;38531;53.296;6.614;2023-05-07T08:37:10;11.20;99.90
52643;DHT22;38531;53.296;6.614;2023-05-07T08:39:36;11.40;99.90
52643;DHT22;38531;53.296;6.614;2023-05-07T08:42:04;11.70;99.90
52643;DHT22;38531;53.296;6.614;2023-05-07T08:44:34;11.40;99.90
52643;DHT22;38531;53.296;6.614;2023-05-07T08:47:01;11.50;99.90
52643;DHT22;38531;53.296;6.614;2023-05-07T08:49:30;11.50;99.90
52643;DHT22;38531;53.296;6.614;2023-05-07T08:51:56;11.60;99.90
52643;DHT22;38531;53.296;6.614;2023-05-07T08:54:22;11.60;99.90
52643;DHT22;38531;53.296;6.614;2023-05-07T08:56:47;11.70;99.90
52643;DHT22;38531;53.296;6.614;2023-05-07T08:59:13;11.70;99.90
52643;DHT22;38531;53.296;6.614;2023-05-07T09:01:39;11.50;99.90
52643;DHT22;38531;53.296;6.614;2023-05-07T09:04:05;12.00;99.90
52643;DHT22;38531;53.296;6.614;2023-05-07T09:06:32;12.10;99.90
52643;DHT22;38531;53.296;6.614;2023-05-07T09:08:58;12.20;99.90
52643;DHT22;38531;53.296;6.614;2023-05-07T09:11:26;12.30;99.90
52643;DHT22;38531;53.296;6.614;2023-05-07T09:13:56;12.30;99.90
52643;DHT22;38531;53.296;6.614;2023-05-07T09:16:24;12.40;99.90
52643;DHT22;38531;53.296;6.614;2023-05-07T09:18:54;12.40;99.90
52643;DHT22;38531;53.296;6.614;2023-05-07T09:21:21;12.50;99.90
52643;DHT22;38531;53.296;6.614;2023-05-07T09:23:50;12.60;99.90
52643;DHT22;38531;53.296;6.614;2023-05-07T09:26:16;12.80;99.90
52643;DHT22;38531;53.296;6.614;2023-05-07T09:28:42;12.80;99.90
52643;DHT22;38531;53.296;6.614;2023-05-07T09:31:09;12.80;99.90
52643;DHT22;38531;53.296;6.614;2023-05-07T09:33:35;12.80;99.90
52643;DHT22;38531;53.296;6.614;2023-05-07T09:36:05;13.00;99.90
52643;DHT22;38531;53.296;6.614;2023-05-07T09:38:32;12.90;99.90
52643;DHT22;38531;53.296;6.614;2023-05-07T09:41:06;13.00;99.90
52643;DHT22;38531;53.296;6.614;2023-05-07T09:43:33;13.20;99.90
52643;DHT22;38531;53.296;6.614;2023-05-07T09:46:03;13.20;99.90
52643;DHT22;38531;53.296;6.614;2023-05-07T09:48:29;13.20;99.90
52643;DHT22;38531;53.296;6.614;2023-05-07T09:51:02;13.30;99.90
52643;DHT22;38531;53.296;6.614;2023-05-07T09:53:29;13.50;99.90
52643;DHT22;38531;53.296;6.614;2023-05-07T09:55:57;13.60;99.90
52643;DHT22;38531;53.296;6.614;2023-05-07T09:58:22;13.60;99.90
52643;DHT22;38531;53.296;6.614;2023-05-07T10:00:50;13.60;99.90
52643;DHT22;38531;53.296;6.614;2023-05-07T10:03:17;13.90;99.90
52643;DHT22;38531;53.296;6.614;2023-05-07T10:05:44;13.90;99.90
52643;DHT22;38531;53.296;6.614;2023-05-07T10:08:13;13.90;99.90
52643;DHT22;38531;53.296;6.614;2023-05-07T10:10:40;14.00;99.90
52643;DHT22;38531;53.296;6.614;2023-05-07T10:13:06;13.90;99.90
52643;DHT22;38531;53.296;6.614;2023-05-07T10:15:36;14.00;99.90
52643;DHT22;38531;53.296;6.614;2023-05-07T10:18:04;14.00;99.90
52643;DHT22;38531;53.296;6.614;2023-05-07T10:20:33;14.20;99.90
52643;DHT22;38531;53.296;6.614;2023-05-07T10:22:59;14.20;99.90
52643;DHT22;38531;53.296;6.614;2023-05-07T10:25:30;14.30;99.90
52643;DHT22;38531;53.296;6.614;2023-05-07T10:28:01;14.50;99.90
52643;DHT22;38531;53.296;6.614;2023-05-07T10:33:24;14.80;99.90
52643;DHT22;38531;53.296;6.614;2023-05-07T10:35:51;15.00;99.90
52643;DHT22;38531;53.296;6.614;2023-05-07T10:38:21;15.30;99.90
52643;DHT22;38531;53.296;6.614;2023-05-07T10:40:46;15.20;99.90
52643;DHT22;38531;53.296;6.614;2023-05-07T10:43:12;15.10;99.90
52643;DHT22;38531;53.296;6.614;2023-05-07T10:45:38;15.10;99.90
52643;DHT22;38531;53.296;6.614;2023-05-07T10:48:16;15.20;99.90
52643;DHT22;38531;53.296;6.614;2023-05-07T10:50:43;15.30;99.90
52643;DHT22;38531;53.296;6.614;2023-05-07T10:53:27;15.50;99.90
52643;DHT22;38531;53.296;6.614;2023-05-07T10:58:42;15.60;99.90
52643;DHT22;38531;53.296;6.614;2023-05-07T11:01:08;15.60;99.90
52643;DHT22;38531;53.296;6.614;2023-05-07T11:03:35;15.60;99.90
52643;DHT22;38531;53.296;6.614;2023-05-07T11:06:15;15.70;99.90
52643;DHT22;38531;53.296;6.614;2023-05-07T11:08:54;15.70;99.90
52643;DHT22;38531;53.296;6.614;2023-05-07T11:11:26;15.70;99.90
52643;DHT22;38531;53.296;6.614;2023-05-07T11:14:05;15.90;99.90
52643;DHT22;38531;53.296;6.614;2023-05-07T11:16:32;15.90;99.90
52643;DHT22;38531;53.296;6.614;2023-05-07T11:18:59;16.10;99.90
52643;DHT22;38531;53.296;6.614;2023-05-07T11:21:41;16.20;99.90
52643;DHT22;38531;53.296;6.614;2023-05-07T11:24:10;16.50;99.90
52643;DHT22;38531;53.296;6.614;2023-05-07T11:26:45;16.60;99.90
52643;DHT22;38531;53.296;6.614;2023-05-07T11:29:19;16.50;99.90
52643;DHT22;38531;53.296;6.614;2023-05-07T11:31:52;16.60;99.90
52643;DHT22;38531;53.296;6.614;2023-05-07T11:34:25;16.60;99.90
52643;DHT22;38531;53.296;6.614;2023-05-07T11:36:52;16.50;99.90
52643;DHT22;38531;53.296;6.614;2023-05-07T11:41:50;16.90;99.90
52643;DHT22;38531;53.296;6.614;2023-05-07T11:44:16;16.80;99.90
52643;DHT22;38531;53.296;6.614;2023-05-07T11:46:45;16.90;99.90
52643;DHT22;38531;53.296;6.614;2023-05-07T11:49:10;17.00;99.90
52643;DHT22;38531;53.296;6.614;2023-05-07T11:51:36;17.10;99.90
52643;DHT22;38531;53.296;6.614;2023-05-07T11:54:05;17.20;99.90
52643;DHT22;38531;53.296;6.614;2023-05-07T11:56:37;17.00;99.90
52643;DHT22;38531;53.296;6.614;2023-05-07T11:59:02;16.90;99.90
52643;DHT22;38531;53.296;6.614;2023-05-07T12:01:28;16.90;99.90
52643;DHT22;38531;53.296;6.614;2023-05-07T12:03:54;17.10;99.90
52643;DHT22;38531;53.296;6.614;2023-05-07T12:06:20;17.10;99.90
52643;DHT22;38531;53.296;6.614;2023-05-07T12:08:46;17.20;99.90
52643;DHT22;38531;53.296;6.614;2023-05-07T12:11:25;17.30;99.90
52643;DHT22;38531;53.296;6.614;2023-05-07T12:13:51;17.40;99.90
52643;DHT22;38531;53.296;6.614;2023-05-07T12:16:17;17.30;99.90
52643;DHT22;38531;53.296;6.614;2023-05-07T12:18:44;17.60;99.90
52643;DHT22;38531;53.296;6.614;2023-05-07T12:21:10;17.30;99.90
52643;DHT22;38531;53.296;6.614;2023-05-07T12:23:37;17.80;99.90
52643;DHT22;38531;53.296;6.614;2023-05-07T12:26:03;17.90;99.90
52643;DHT22;38531;53.296;6.614;2023-05-07T12:28:29;18.00;99.90
52643;DHT22;38531;53.296;6.614;2023-05-07T12:30:56;18.10;99.90
52643;DHT22;38531;53.296;6.614;2023-05-07T12:33:26;18.20;99.90
52643;DHT22;38531;53.296;6.614;2023-05-07T12:35:54;18.60;99.90
52643;DHT22;38531;53.296;6.614;2023-05-07T12:38:20;18.30;99.90
52643;DHT22;38531;53.296;6.614;2023-05-07T12:40:48;18.30;99.90
52643;DHT22;38531;53.296;6.614;2023-05-07T12:43:17;18.20;99.90
52643;DHT22;38531;53.296;6.614;2023-05-07T12:45:43;18.30;99.90
52643;DHT22;38531;53.296;6.614;2023-05-07T12:48:10;18.10;99.90
52643;DHT22;38531;53.296;6.614;2023-05-07T12:50:36;18.30;99.90
52643;DHT22;38531;53.296;6.614;2023-05-07T12:53:06;18.40;99.90
52643;DHT22;38531;53.296;6.614;2023-05-07T12:55:44;18.60;99.90
52643;DHT22;38531;53.296;6.614;2023-05-07T12:58:29;18.70;99.90
52643;DHT22;38531;53.296;6.614;2023-05-07T13:00:56;18.80;99.90
52643;DHT22;38531;53.296;6.614;2023-05-07T13:03:27;19.00;99.90
52643;DHT22;38531;53.296;6.614;2023-05-07T13:05:55;19.10;99.90
52643;DHT22;38531;53.296;6.614;2023-05-07T13:10:54;19.40;99.90
52643;DHT22;38531;53.296;6.614;2023-05-07T13:13:21;19.30;99.90
52643;DHT22;38531;53.296;6.614;2023-05-07T13:15:47;19.50;99.90
52643;DHT22;38531;53.296;6.614;2023-05-07T13:18:13;19.20;99.90
52643;DHT22;38531;53.296;6.614;2023-05-07T13:20:39;19.20;99.90
52643;DHT22;38531;53.296;6.614;2023-05-07T13:23:05;19.10;99.90
52643;DHT22;38531;53.296;6.614;2023-05-07T13:25:31;19.00;99.90
52643;DHT22;38531;53.296;6.614;2023-05-07T13:27:57;19.00;99.90
52643;DHT22;38531;53.296;6.614;2023-05-07T13:30:23;18.90;99.90
52643;DHT22;38531;53.296;6.614;2023-05-07T13:32:49;19.00;99.90
52643;DHT22;38531;53.296;6.614;2023-05-07T13:35:16;19.20;99.90
52643;DHT22;38531;53.296;6.614;2023-05-07T13:37:41;19.30;99.90
52643;DHT22;38531;53.296;6.614;2023-05-07T13:40:08;19.60;99.90
52643;DHT22;38531;53.296;6.614;2023-05-07T13:42:33;19.70;99.90
52643;DHT22;38531;53.296;6.614;2023-05-07T13:44:59;19.90;99.90
52643;DHT22;38531;53.296;6.614;2023-05-07T13:47:25;20.30;99.90
52643;DHT22;38531;53.296;6.614;2023-05-07T13:49:51;20.50;99.90
52643;DHT22;38531;53.296;6.614;2023-05-07T13:52:17;20.50;99.90
52643;DHT22;38531;53.296;6.614;2023-05-07T13:54:43;20.80;99.90
52643;DHT22;38531;53.296;6.614;2023-05-07T13:57:08;21.20;99.90
52643;DHT22;38531;53.296;6.614;2023-05-07T13:59:34;21.00;99.90
52643;DHT22;38531;53.296;6.614;2023-05-07T14:02:00;20.80;99.90
52643;DHT22;38531;53.296;6.614;2023-05-07T14:04:25;20.70;99.90
52643;DHT22;38531;53.296;6.614;2023-05-07T14:06:51;20.50;99.90
52643;DHT22;38531;53.296;6.614;2023-05-07T14:09:17;20.50;99.90
52643;DHT22;38531;53.296;6.614;2023-05-07T14:11:42;20.40;99.90
52643;DHT22;38531;53.296;6.614;2023-05-07T14:14:08;20.60;99.90
52643;DHT22;38531;53.296;6.614;2023-05-07T14:16:37;20.70;99.90
52643;DHT22;38531;53.296;6.614;2023-05-07T14:19:03;20.70;99.90
52643;DHT22;38531;53.296;6.614;2023-05-07T14:21:28;20.60;99.90
52643;DHT22;38531;53.296;6.614;2023-05-07T14:23:55;20.80;99.90
52643;DHT22;38531;53.296;6.614;2023-05-07T14:26:22;20.80;99.90
52643;DHT22;38531;53.296;6.614;2023-05-07T14:28:48;20.70;99.90
52643;DHT22;38531;53.296;6.614;2023-05-07T14:31:14;20.50;99.90
52643;DHT22;38531;53.296;6.614;2023-05-07T14:33:40;20.20;99.90
52643;DHT22;38531;53.296;6.614;2023-05-07T14:36:06;20.30;99.90
52643;DHT22;38531;53.296;6.614;2023-05-07T14:38:32;20.10;99.90
52643;DHT22;38531;53.296;6.614;2023-05-07T14:40:58;20.10;99.90
52643;DHT22;38531;53.296;6.614;2023-05-07T14:43:24;20.10;99.90
52643;DHT22;38531;53.296;6.614;2023-05-07T14:45:49;20.10;99.90
52643;DHT22;38531;53.296;6.614;2023-05-07T14:48:15;20.00;99.90
52643;DHT22;38531;53.296;6.614;2023-05-07T14:50:47;19.90;99.90
52643;DHT22;38531;53.296;6.614;2023-05-07T14:53:12;19.70;99.90
52643;DHT22;38531;53.296;6.614;2023-05-07T14:55:38;19.60;99.90
52643;DHT22;38531;53.296;6.614;2023-05-07T14:58:04;19.50;99.90
52643;DHT22;38531;53.296;6.614;2023-05-07T15:00:30;19.60;99.90
52643;DHT22;38531;53.296;6.614;2023-05-07T15:03:06;19.80;99.90
52643;DHT22;38531;53.296;6.614;2023-05-07T15:05:32;19.70;99.90
52643;DHT22;38531;53.296;6.614;2023-05-07T15:07:58;19.70;99.90
52643;DHT22;38531;53.296;6.614;2023-05-07T15:10:24;19.70;99.90
52643;DHT22;38531;53.296;6.614;2023-05-07T15:12:50;19.60;99.90
52643;DHT22;38531;53.296;6.614;2023-05-07T15:15:15;19.60;99.90
52643;DHT22;38531;53.296;6.614;2023-05-07T15:17:41;19.70;99.90
52643;DHT22;38531;53.296;6.614;2023-05-07T15:20:07;19.60;99.90
52643;DHT22;38531;53.296;6.614;2023-05-07T15:22:33;19.70;99.90
52643;DHT22;38531;53.296;6.614;2023-05-07T15:25:01;19.80;99.90
52643;DHT22;38531;53.296;6.614;2023-05-07T15:27:28;20.10;99.90
52643;DHT22;38531;53.296;6.614;2023-05-07T15:29:54;20.30;99.90
52643;DHT22;38531;53.296;6.614;2023-05-07T15:32:23;20.30;99.90
52643;DHT22;38531;53.296;6.614;2023-05-07T15:34:49;20.30;99.90
52643;DHT22;38531;53.296;6.614;2023-05-07T15:37:16;20.30;99.90